Station Historical Data
Daily Summary for June 11, 2017 Units:  English    Metric   Both
« Previous Day
Next Day »
Daily Weekly Monthly Yearly Custom
  High: Low: Average:
Temperature: 85.2 °F 65.7 °F 75.7 °F
Dew Point: 71.0 °F 60.8 °F 66.3 °F
Humidity: 90% 58% 73%
Wind Speed: 1.0mph 0.0mph 0mph
Wind Gust: 5.0mph - -
Wind- - NW
Pressure: 30.21 in 30.10 in -
Precipitation: 0.00 in    
Historical Graphs
 
 
Tabular Data for June 11, 2017
Time Temperature Dew Point Pressure Wind Wind Speed Wind Gust Humidity Rainfall Rate (Hourly) solar Conditions
00:00 69.7 °F 61.8 °F 30.14 in Calm     76% 0.00 in WeatherDisplay:10.37 W/m2 CLR
00:10 69.4 °F 61.1 °F 30.14 in Calm     75% 0.00 in WeatherDisplay:10.37 W/m2 CLR
00:20 69.2 °F 61.7 °F 30.15 in Calm     77% 0.00 in WeatherDisplay:10.37 W/m2 CLR
00:30 68.9 °F 61.8 °F 30.14 in Calm     78% 0.00 in WeatherDisplay:10.37 W/m2 CLR
00:40 68.6 °F 61.8 °F 30.14 in Calm     79% 0.00 in WeatherDisplay:10.37 W/m2 CLR
00:50 68.3 °F 61.9 °F 30.14 in Calm     80% 0.00 in WeatherDisplay:10.37 W/m2 CLR
01:00 68.0 °F 61.6 °F 30.14 in Calm     80% 0.00 in WeatherDisplay:10.37 W/m2 CLR
01:10 67.8 °F 61.8 °F 30.14 in Calm     81% 0.00 in WeatherDisplay:10.37 W/m2 CLR
01:20 67.6 °F 61.6 °F 30.14 in Calm     81% 0.00 in WeatherDisplay:10.37 W/m2 CLR
01:30 67.4 °F 61.7 °F 30.14 in Calm     82% 0.00 in WeatherDisplay:10.37 W/m2 CLR
01:40 67.2 °F 61.9 °F 30.14 in Calm     83% 0.00 in WeatherDisplay:10.37 W/m2 CLR
01:50 66.9 °F 61.6 °F 30.14 in Calm     83% 0.00 in WeatherDisplay:10.37 W/m2 CLR
02:00 66.7 °F 61.4 °F 30.13 in Calm     83% 0.00 in WeatherDisplay:10.37 W/m2 CLR
02:10 66.6 °F 61.3 °F 30.13 in Calm     83% 0.00 in WeatherDisplay:10.37 W/m2 CLR
02:20 66.4 °F 61.4 °F 30.13 in Calm     84% 0.00 in WeatherDisplay:10.37 W/m2 CLR
02:30 66.3 °F 61.3 °F 30.13 in Calm     84% 0.00 in WeatherDisplay:10.37 W/m2 CLR
02:40 66.0 °F 61.0 °F 30.13 in Calm     84% 0.00 in WeatherDisplay:10.37 W/m2 CLR
02:50 65.9 °F 60.9 °F 30.13 in Calm     84% 0.00 in WeatherDisplay:10.37 W/m2 CLR
03:10 65.7 °F 60.8 °F 30.13 in Calm     84% 0.00 in WeatherDisplay:10.37 W/m2 CLR
03:20 66.2 °F 61.2 °F 30.12 in Calm     84% 0.00 in WeatherDisplay:10.37 W/m2 CLR
03:30 66.2 °F 60.9 °F 30.13 in Calm     83% 0.00 in WeatherDisplay:10.37 W/m2 CLR
03:40 67.0 °F 61.7 °F 30.13 in Calm     83% 0.00 in WeatherDisplay:10.37 W/m2 CLR
03:50 67.0 °F 61.7 °F 30.13 in Calm     83% 0.00 in WeatherDisplay:10.37 W/m2 CLR
04:00 67.0 °F 61.7 °F 30.13 in Calm     83% 0.00 in WeatherDisplay:10.37 W/m2 CLR
04:10 67.0 °F 61.7 °F 30.12 in Calm     83% 0.00 in WeatherDisplay:10.37 W/m2 CLR
04:20 67.0 °F 61.7 °F 30.12 in Calm     83% 0.00 in WeatherDisplay:10.37 W/m2 CLR
04:30 67.0 °F 61.7 °F 30.12 in Calm     83% 0.00 in WeatherDisplay:10.37 W/m2 CLR
04:40 67.0 °F 61.7 °F 30.12 in Calm     83% 0.00 in WeatherDisplay:10.37 W/m2 CLR
04:50 67.0 °F 61.7 °F 30.12 in Calm     83% 0.00 in WeatherDisplay:10.37 W/m2 CLR
05:00 67.0 °F 61.7 °F 30.12 in Calm     83% 0.00 in WeatherDisplay:10.37 W/m2 CLR
05:10 67.0 °F 61.7 °F 30.13 in Calm     83% 0.00 in WeatherDisplay:10.37 W/m2 CLR
05:20 67.0 °F 61.7 °F 30.13 in Calm     83% 0.00 in WeatherDisplay:10.37 W/m2 CLR
05:30 67.0 °F 61.7 °F 30.13 in Calm     83% 0.00 in WeatherDisplay:10.37 W/m2 CLR
05:40 67.0 °F 61.7 °F 30.13 in Calm     83% 0.00 in WeatherDisplay:10.37 W/m2 CLR
05:50 67.0 °F 61.7 °F 30.13 in Calm     83% 0.00 in WeatherDisplay:10.37 W/m2 CLR
06:00 67.0 °F 61.7 °F 30.14 in Calm     83% 0.00 in WeatherDisplay:10.37 W/m2 CLR
06:10 67.0 °F 61.7 °F 30.14 in Calm     83% 0.00 in WeatherDisplay:10.37 W/m2 CLR
06:20 67.0 °F 61.7 °F 30.14 in Calm     83% 0.00 in WeatherDisplay:10.37 W/m2 CLR
06:30 67.0 °F 61.7 °F 30.15 in Calm     83% 0.00 in WeatherDisplay:10.37 W/m2 CLR
06:40 67.0 °F 61.7 °F 30.15 in Calm     83% 0.00 in WeatherDisplay:10.37 W/m2 CLR
06:50 67.0 °F 61.7 °F 30.16 in Calm     83% 0.00 in WeatherDisplay:10.37 W/m2 CLR
07:00 67.0 °F 61.7 °F 30.16 in Calm     83% 0.00 in WeatherDisplay:10.37 W/m2 CLR
07:10 67.0 °F 61.7 °F 30.16 in Calm     83% 0.00 in WeatherDisplay:10.37 W/m2 CLR
07:20 67.0 °F 61.7 °F 30.16 in Calm     83% 0.00 in WeatherDisplay:10.37 W/m2 CLR
07:30 67.0 °F 61.7 °F 30.17 in Calm     83% 0.00 in WeatherDisplay:10.37 W/m2 CLR
07:40 67.0 °F 61.7 °F 30.17 in Calm     83% 0.00 in WeatherDisplay:10.37 W/m2 CLR
07:50 66.7 °F 63.4 °F 30.18 in Calm     89% 0.00 in WeatherDisplay:10.37 W/m2 CLR
08:00 67.5 °F 64.5 °F 30.18 in Calm     90% 0.00 in WeatherDisplay:10.37 W/m2 CLR
08:10 68.4 °F 65.4 °F 30.18 in Calm     90% 0.00 in WeatherDisplay:10.37 W/m2 CLR
08:20 69.3 °F 65.9 °F 30.18 in Calm     89% 0.00 in WeatherDisplay:10.37 W/m2 CLR
08:30 69.9 °F 66.2 °F 30.19 in Calm   1.0 mph 88% 0.00 in WeatherDisplay:10.37 W/m2 CLR
08:40 70.5 °F 66.8 °F 30.19 in Calm   1.0 mph 88% 0.00 in WeatherDisplay:10.37 W/m2 CLR
08:50 70.8 °F 66.7 °F 30.19 in Calm     87% 0.00 in WeatherDisplay:10.37 W/m2 CLR
09:00 71.2 °F 67.1 °F 30.20 in Calm   1.0 mph 87% 0.00 in WeatherDisplay:10.37 W/m2 CLR
09:10 71.7 °F 67.3 °F 30.20 in Calm   2.0 mph 86% 0.00 in WeatherDisplay:10.37 W/m2 CLR
09:20 72.4 °F 67.9 °F 30.20 in Calm   2.0 mph 86% 0.00 in WeatherDisplay:10.37 W/m2 CLR
09:30 73.2 °F 68.4 °F 30.20 in Calm   1.0 mph 85% 0.00 in WeatherDisplay:10.37 W/m2 CLR
09:40 74.0 °F 68.9 °F 30.21 in Calm   1.0 mph 84% 0.00 in WeatherDisplay:10.37 W/m2 CLR
09:50 74.7 °F 69.5 °F 30.21 in Calm   1.0 mph 84% 0.00 in WeatherDisplay:10.37 W/m2 CLR
10:00 75.2 °F 69.3 °F 30.21 in Calm   1.0 mph 82% 0.00 in WeatherDisplay:10.37 W/m2 CLR
10:20 76.3 °F 70.1 °F 30.21 in Calm   1.0 mph 81% 0.00 in WeatherDisplay:10.37 W/m2 CLR
10:30 77.2 °F 69.8 °F 30.21 in Calm   1.0 mph 78% 0.00 in WeatherDisplay:10.37 W/m2 CLR
10:40 77.7 °F 70.3 °F 30.21 in Calm   1.0 mph 78% 0.00 in WeatherDisplay:10.37 W/m2 CLR
10:50 78.3 °F 70.9 °F 30.20 in Calm   1.0 mph 78% 0.00 in WeatherDisplay:10.37 W/m2 CLR
11:00 78.7 °F 70.5 °F 30.20 in Calm   2.0 mph 76% 0.00 in WeatherDisplay:10.37 W/m2 CLR
11:10 78.8 °F 70.2 °F 30.20 in Calm   2.0 mph 75% 0.00 in WeatherDisplay:10.37 W/m2 CLR
11:20 79.2 °F 70.1 °F 30.20 in Calm   1.0 mph 74% 0.00 in WeatherDisplay:10.37 W/m2 CLR
11:30 79.1 °F 70.1 °F 30.21 in Calm   2.0 mph 74% 0.00 in WeatherDisplay:10.37 W/m2 CLR
11:40 79.6 °F 71.0 °F 30.21 in Calm     75% 0.00 in WeatherDisplay:10.37 W/m2 CLR
11:50 80.1 °F 70.3 °F 30.21 in Calm   1.0 mph 72% 0.00 in WeatherDisplay:10.37 W/m2 CLR
12:00 79.8 °F 70.0 °F 30.21 in Calm   1.0 mph 72% 0.00 in WeatherDisplay:10.37 W/m2 CLR
12:10 80.2 °F 70.3 °F 30.20 in Calm   1.0 mph 72% 0.00 in WeatherDisplay:10.37 W/m2 CLR
12:20 80.4 °F 69.3 °F 30.20 in Calm   3.0 mph 69% 0.00 in WeatherDisplay:10.37 W/m2 CLR
12:30 80.5 °F 69.4 °F 30.20 in Calm   1.0 mph 69% 0.00 in WeatherDisplay:10.37 W/m2 CLR
12:40 80.1 °F 69.4 °F 30.20 in Calm     70% 0.00 in WeatherDisplay:10.37 W/m2 CLR
12:50 80.4 °F 69.7 °F 30.20 in Calm   2.0 mph 70% 0.00 in WeatherDisplay:10.37 W/m2 CLR
13:00 81.7 °F 69.2 °F 30.20 in Calm   1.0 mph 66% 0.00 in WeatherDisplay:10.37 W/m2 CLR
13:10 82.1 °F 69.2 °F 30.20 in Calm   1.0 mph 65% 0.00 in WeatherDisplay:10.37 W/m2 CLR
13:20 82.8 °F 69.4 °F 30.19 in Calm   1.0 mph 64% 0.00 in WeatherDisplay:10.37 W/m2 CLR
13:30 83.0 °F 69.1 °F 30.19 in NW 1.0 mph 2.0 mph 63% 0.00 in WeatherDisplay:10.37 W/m2 CLR
13:40 83.5 °F 70.0 °F 30.19 in Calm   2.0 mph 64% 0.00 in WeatherDisplay:10.37 W/m2 CLR
13:50 83.8 °F 67.4 °F 30.19 in Calm   1.0 mph 58% 0.00 in WeatherDisplay:10.37 W/m2 CLR
14:00 84.1 °F 70.6 °F 30.18 in Calm   1.0 mph 64% 0.00 in WeatherDisplay:10.37 W/m2 CLR
14:10 84.7 °F 69.3 °F 30.18 in Calm   1.0 mph 60% 0.00 in WeatherDisplay:10.37 W/m2 CLR
14:20 84.5 °F 69.1 °F 30.18 in Calm   3.0 mph 60% 0.00 in WeatherDisplay:10.37 W/m2 CLR
14:30 84.9 °F 69.0 °F 30.17 in Calm   2.0 mph 59% 0.00 in WeatherDisplay:10.37 W/m2 CLR
14:40 85.1 °F 70.1 °F 30.17 in Calm   1.0 mph 61% 0.00 in WeatherDisplay:10.37 W/m2 CLR
14:50 85.2 °F 69.3 °F 30.17 in Calm   2.0 mph 59% 0.00 in WeatherDisplay:10.37 W/m2 CLR
15:00 84.9 °F 69.0 °F 30.17 in Calm   3.0 mph 59% 0.00 in WeatherDisplay:10.37 W/m2 CLR
15:10 85.0 °F 69.6 °F 30.17 in Calm   2.0 mph 60% 0.00 in WeatherDisplay:10.37 W/m2 CLR
15:20 84.9 °F 69.4 °F 30.16 in Calm   1.0 mph 60% 0.00 in WeatherDisplay:10.37 W/m2 CLR
15:30 84.3 °F 69.4 °F 30.16 in Calm   1.0 mph 61% 0.00 in WeatherDisplay:10.37 W/m2 CLR
15:40 83.1 °F 67.7 °F 30.16 in Calm   2.0 mph 60% 0.00 in WeatherDisplay:10.37 W/m2 CLR
15:50 83.4 °F 68.5 °F 30.15 in Calm   2.0 mph 61% 0.00 in WeatherDisplay:10.37 W/m2 CLR
16:00 84.2 °F 68.8 °F 30.15 in Calm   3.0 mph 60% 0.00 in WeatherDisplay:10.37 W/m2 CLR
16:10 84.2 °F 67.8 °F 30.15 in Calm   2.0 mph 58% 0.00 in WeatherDisplay:10.37 W/m2 CLR
16:20 84.5 °F 69.1 °F 30.14 in Calm   2.0 mph 60% 0.00 in WeatherDisplay:10.37 W/m2 CLR
16:30 84.2 °F 68.8 °F 30.14 in Calm   3.0 mph 60% 0.00 in WeatherDisplay:10.37 W/m2 CLR
16:40 83.3 °F 68.4 °F 30.14 in Calm   1.0 mph 61% 0.00 in WeatherDisplay:10.37 W/m2 CLR
16:50 84.3 °F 68.9 °F 30.13 in NW 1.0 mph 5.0 mph 60% 0.00 in WeatherDisplay:10.37 W/m2 CLR
17:00 84.8 °F 68.8 °F 30.13 in Calm   5.0 mph 59% 0.00 in WeatherDisplay:10.37 W/m2 CLR
17:10 84.3 °F 69.4 °F 30.13 in Calm   2.0 mph 61% 0.00 in WeatherDisplay:10.37 W/m2 CLR
17:20 84.6 °F 69.1 °F 30.13 in NW 1.0 mph 2.0 mph 60% 0.00 in WeatherDisplay:10.37 W/m2 CLR
17:30 84.6 °F 68.7 °F 30.13 in Calm   1.0 mph 59% 0.00 in WeatherDisplay:10.37 W/m2 CLR
17:40 84.5 °F 69.1 °F 30.13 in Calm   1.0 mph 60% 0.00 in WeatherDisplay:10.37 W/m2 CLR
18:00 84.0 °F 68.6 °F 30.12 in Calm   2.0 mph 60% 0.00 in WeatherDisplay:10.37 W/m2 CLR
18:10 84.1 °F 68.7 °F 30.11 in Calm   1.0 mph 60% 0.00 in WeatherDisplay:10.37 W/m2 CLR
18:20 83.8 °F 68.4 °F 30.11 in Calm   1.0 mph 60% 0.00 in WeatherDisplay:10.37 W/m2 CLR
18:30 83.6 °F 68.2 °F 30.11 in Calm   2.0 mph 60% 0.00 in WeatherDisplay:10.37 W/m2 CLR
18:40 83.3 °F 68.5 °F 30.10 in Calm   1.0 mph 61% 0.00 in WeatherDisplay:10.37 W/m2 CLR
18:50 83.3 °F 68.9 °F 30.10 in Calm   1.0 mph 62% 0.00 in WeatherDisplay:10.37 W/m2 CLR
19:00 83.1 °F 68.3 °F 30.11 in Calm   1.0 mph 61% 0.00 in WeatherDisplay:10.37 W/m2 CLR
19:10 82.6 °F 67.8 °F 30.11 in Calm   1.0 mph 61% 0.00 in WeatherDisplay:10.37 W/m2 CLR
19:20 82.3 °F 68.9 °F 30.11 in Calm   1.0 mph 64% 0.00 in WeatherDisplay:10.37 W/m2 CLR
19:30 81.9 °F 68.1 °F 30.10 in Calm     63% 0.00 in WeatherDisplay:10.37 W/m2 CLR
19:40 81.7 °F 67.9 °F 30.11 in Calm     63% 0.00 in WeatherDisplay:10.37 W/m2 CLR
19:50 81.6 °F 68.3 °F 30.11 in Calm   1.0 mph 64% 0.00 in WeatherDisplay:10.37 W/m2 CLR
20:00 81.4 °F 68.5 °F 30.11 in Calm     65% 0.00 in WeatherDisplay:10.37 W/m2 CLR
20:10 81.1 °F 68.7 °F 30.11 in Calm   2.0 mph 66% 0.00 in WeatherDisplay:10.37 W/m2 CLR
20:20 81.1 °F 68.2 °F 30.12 in Calm   2.0 mph 65% 0.00 in WeatherDisplay:10.37 W/m2 CLR
20:30 80.9 °F 68.0 °F 30.12 in Calm     65% 0.00 in WeatherDisplay:10.37 W/m2 CLR
20:40 80.7 °F 68.3 °F 30.12 in Calm     66% 0.00 in WeatherDisplay:10.37 W/m2 CLR
20:50 80.5 °F 68.1 °F 30.12 in Calm     66% 0.00 in WeatherDisplay:10.37 W/m2 CLR
21:00 80.3 °F 68.3 °F 30.12 in Calm   1.0 mph 67% 0.00 in WeatherDisplay:10.37 W/m2 CLR
21:10 80.2 °F 68.3 °F 30.13 in Calm     67% 0.00 in WeatherDisplay:10.37 W/m2 CLR
21:20 80.2 °F 68.3 °F 30.13 in Calm   1.0 mph 67% 0.00 in WeatherDisplay:10.37 W/m2 CLR
21:30 80.0 °F 68.5 °F 30.14 in Calm     68% 0.00 in WeatherDisplay:10.37 W/m2 CLR
21:40 79.7 °F 68.2 °F 30.14 in Calm   1.0 mph 68% 0.00 in WeatherDisplay:10.37 W/m2 CLR
21:50 79.1 °F 67.6 °F 30.14 in Calm     68% 0.00 in WeatherDisplay:10.37 W/m2 CLR
22:00 78.6 °F 67.2 °F 30.15 in Calm     68% 0.00 in WeatherDisplay:10.37 W/m2 CLR
22:10 78.2 °F 67.2 °F 30.15 in Calm     69% 0.00 in WeatherDisplay:10.37 W/m2 CLR
22:20 77.8 °F 67.2 °F 30.16 in Calm     70% 0.00 in WeatherDisplay:10.37 W/m2 CLR
22:30 77.7 °F 67.5 °F 30.16 in Calm     71% 0.00 in WeatherDisplay:10.37 W/m2 CLR
22:40 77.5 °F 67.4 °F 30.16 in Calm   1.0 mph 71% 0.00 in WeatherDisplay:10.37 W/m2 CLR
22:50 77.5 °F 67.7 °F 30.16 in Calm     72% 0.00 in WeatherDisplay:10.37 W/m2 CLR
23:00 77.2 °F 67.9 °F 30.17 in Calm     73% 0.00 in WeatherDisplay:10.37 W/m2 CLR
23:10 76.8 °F 67.9 °F 30.17 in Calm     74% 0.00 in WeatherDisplay:10.37 W/m2 CLR
23:20 77.0 °F 68.5 °F 30.16 in Calm   1.0 mph 75% 0.00 in WeatherDisplay:10.37 W/m2 CLR
23:30 76.9 °F 68.4 °F 30.16 in Calm   1.0 mph 75% 0.00 in WeatherDisplay:10.37 W/m2 CLR
23:40 76.8 °F 68.7 °F 30.16 in Calm   1.0 mph 76% 0.00 in WeatherDisplay:10.37 W/m2 CLR
23:50 76.6 °F 68.5 °F 30.16 in Calm   1.0 mph 76% 0.00 in WeatherDisplay:10.37 W/m2 CLR
Piedmont Bend
Compliments of Weather Underground - 4 mb